Time;durP1;ratioP1;P1;durP2;ratioP2;P2;SDS_P1;SDS_P2;PMS_P1;PMS_P2;Temp;Humidity;BMP_temperature;BMP_pressure;BME280_temperature;BME280_humidity;BME280_pressure;Samples;Min_cycle;Max_cycle;Signal;HPM_P1;HPM_P2
2022/05/15 00:01:31;;;;;;;;;;;;;;;;;;5047285;28;20735;-74
2022/05/15 00:03:59;;;;;;;22.60;6.57;;;;;;;;;;5046323;28;19924;-75
2022/05/15 00:06:26;;;;;;;17.48;5.85;;;;;;;;;;5049592;28;20132;-74
2022/05/15 00:08:53;;;;;;;19.38;6.25;;;;;;;;;;5054260;28;20091;-75
2022/05/15 00:11:20;;;;;;;15.23;5.93;;;;;;;;;;5048863;28;20076;-75
2022/05/15 00:13:48;;;;;;;23.73;6.30;;;;;;;;;;5041550;28;20130;-75
2022/05/15 00:16:16;;;;;;;25.27;7.45;;;;;;;;;;5045030;28;20045;-75
2022/05/15 00:18:43;;;;;;;14.38;6.57;;;;;;;;;;5045339;28;20049;-75
2022/05/15 00:21:11;;;;;;;17.42;6.90;;;;;;;;;;5044538;28;20057;-76
2022/05/15 00:23:38;;;;;;;13.35;5.38;;;;;;;;;;5046928;28;20139;-74
2022/05/15 00:26:06;;;;;;;13.65;5.38;;;;;;;;;;5053708;28;20103;-74
2022/05/15 00:28:33;;;;;;;15.98;5.50;;;;;;;;;;5049158;28;20072;-74
2022/05/15 00:31:00;;;;;;;13.02;5.75;;;;;;;;;;5048247;28;20081;-75
2022/05/15 00:33:27;;;;;;;16.13;5.45;;;;;;;;;;5050051;28;20073;-75
2022/05/15 00:35:54;;;;;;;20.20;6.88;;;;;;;;;;5044235;28;20056;-75
2022/05/15 00:38:22;;;;;;;16.38;5.82;;;;;;;;;;5043322;28;20044;-74
2022/05/15 00:40:50;;;;;;;20.90;6.70;;;;;;;;;;5046498;28;20049;-76
2022/05/15 00:43:35;;;;;;;16.63;6.15;;;;;;;;;;5038029;28;20557;-75
2022/05/15 00:46:02;;;;;;;;;;;;;;;;;;5048509;28;20168;-75
2022/05/15 00:48:30;;;;;;;14.52;5.43;;;;;;;;;;5051716;28;19969;-75
2022/05/15 00:50:57;;;;;;;16.05;5.68;;;;;;;;;;5027766;28;20048;-75
2022/05/15 00:53:24;;;;;;;14.90;6.40;;;;;;;;;;5024178;28;20769;-75
2022/05/15 00:55:52;;;;;;;16.00;7.20;;;;;;;;;;5046537;28;20077;-75
2022/05/15 00:58:22;;;;;;;15.80;5.78;;;;;;;;;;5051862;28;20045;-76
2022/05/15 01:00:50;;;;;;;14.55;5.05;;;;;;;;;;5046726;28;20156;-76
2022/05/15 01:03:19;;;;;;;16.40;5.88;;;;;;;;;;5045639;28;20055;-76
2022/05/15 01:05:53;;;;;;;20.40;5.63;;;;;;;;;;5045797;28;20560;-75
2022/05/15 01:08:21;;;;;;;21.67;5.88;;;;;;;;;;5045744;28;20582;-75
2022/05/15 01:10:50;;;;;;;19.98;6.00;;;;;;;;;;5028373;28;20041;-75
2022/05/15 01:13:18;;;;;;;14.98;6.47;;;;;;;;;;5045510;28;20134;-76
2022/05/15 01:15:47;;;;;;;11.77;5.45;;;;;;;;;;5047221;28;20148;-76
2022/05/15 01:18:21;;;;;;;19.40;6.72;;;;;;;;;;5048562;28;20176;-76
2022/05/15 01:20:48;;;;;;;13.73;6.15;;;;;;;;;;5043812;28;20740;-76
2022/05/15 01:23:15;;;;;;;17.25;6.53;;;;;;;;;;5030183;28;20523;-76
2022/05/15 01:25:42;;;;;;;18.88;7.15;;;;;;;;;;5042192;28;20183;-76
2022/05/15 01:28:11;;;;;;;13.27;6.47;;;;;;;;;;5044992;28;20049;-76
2022/05/15 01:30:40;;;;;;;16.45;6.22;;;;;;;;;;5050655;28;20179;-75
2022/05/15 01:33:08;;;;;;;14.95;6.07;;;;;;;;;;5050135;28;20132;-76
2022/05/15 01:35:35;;;;;;;19.63;6.72;;;;;;;;;;5045620;28;20148;-75
2022/05/15 01:38:05;;;;;;;17.77;5.85;;;;;;;;;;5053068;28;20101;-75
2022/05/15 01:40:33;;;;;;;17.83;6.45;;;;;;;;;;5026191;28;20156;-75
2022/05/15 01:43:01;;;;;;;22.45;7.90;;;;;;;;;;5044822;28;20140;-76
2022/05/15 01:45:29;;;;;;;21.38;8.35;;;;;;;;;;5032562;28;20067;-76
2022/05/15 01:47:56;;;;;;;30.38;8.70;;;;;;;;;;5032015;28;20060;-75
2022/05/15 01:50:23;;;;;;;27.17;8.82;;;;;;;;;;5048273;28;20045;-75
2022/05/15 01:52:50;;;;;;;27.25;8.10;;;;;;;;;;5053791;28;20124;-76
2022/05/15 01:55:18;;;;;;;21.40;7.53;;;;;;;;;;5045710;28;20145;-76
2022/05/15 01:57:45;;;;;;;14.32;6.53;;;;;;;;;;5046958;28;20551;-76
2022/05/15 02:00:15;;;;;;;10.88;6.00;;;;;;;;;;5033399;28;20136;-76
2022/05/15 02:02:42;;;;;;;16.17;6.20;;;;;;;;;;5030312;28;20053;-76
2022/05/15 02:05:10;;;;;;;20.77;6.13;;;;;;;;;;5042479;28;20059;-76
2022/05/15 02:07:37;;;;;;;11.10;6.05;;;;;;;;;;5052633;28;20052;-76
2022/05/15 02:10:06;;;;;;;11.20;5.88;;;;;;;;;;5023378;28;20077;-76
2022/05/15 02:12:33;;;;;;;17.40;6.60;;;;;;;;;;5031478;28;20450;-76
2022/05/15 02:15:01;;;;;;;9.18;5.32;;;;;;;;;;5022384;28;20874;-76
2022/05/15 02:17:29;;;;;;;13.25;7.15;;;;;;;;;;5043846;28;20057;-76
2022/05/15 02:19:56;;;;;;;19.63;7.30;;;;;;;;;;5040698;28;20529;-76
2022/05/15 02:22:23;;;;;;;19.55;7.68;;;;;;;;;;5051146;28;20048;-75
2022/05/15 02:24:51;;;;;;;14.63;7.97;;;;;;;;;;5048344;28;20065;-76
2022/05/15 02:27:18;;;;;;;16.10;7.20;;;;;;;;;;5042087;28;21896;-76
2022/05/15 02:29:45;;;;;;;19.85;7.32;;;;;;;;;;5044951;28;20107;-76
2022/05/15 02:32:12;;;;;;;16.55;7.85;;;;;;;;;;5026567;28;20080;-77
2022/05/15 02:34:39;;;;;;;19.48;7.93;;;;;;;;;;5051022;28;20067;-76
2022/05/15 02:37:06;;;;;;;15.45;7.47;;;;;;;;;;5034175;28;20594;-76
2022/05/15 02:39:34;;;;;;;13.20;7.13;;;;;;;;;;5035074;28;20144;-76
2022/05/15 02:42:01;;;;;;;13.65;6.47;;;;;;;;;;5031742;28;20055;-76
2022/05/15 02:44:29;;;;;;;15.80;6.82;;;;;;;;;;5029597;28;20164;-76
2022/05/15 02:46:56;;;;;;;17.30;9.25;;;;;;;;;;5044674;28;20080;-76
2022/05/15 02:52:09;;;;;;;17.77;8.35;;;;;;;;;;5050772;28;20137;-76
2022/05/15 02:54:37;;;;;;;17.88;7.97;;;;;;;;;;5047397;28;20144;-76
2022/05/15 02:57:05;;;;;;;18.58;7.28;;;;;;;;;;5028836;28;20052;-76
2022/05/15 02:59:32;;;;;;;14.32;6.22;;;;;;;;;;5029601;28;20154;-76
2022/05/15 03:01:59;;;;;;;15.73;6.55;;;;;;;;;;5044756;28;20820;-75
2022/05/15 03:04:27;;;;;;;15.77;6.72;;;;;;;;;;5041748;28;20644;-75
2022/05/15 03:06:54;;;;;;;13.77;7.38;;;;;;;;;;5033931;28;20126;-75
2022/05/15 03:09:21;;;;;;;12.93;7.03;;;;;;;;;;5024537;28;20040;-75
2022/05/15 03:11:49;;;;;;;13.73;7.40;;;;;;;;;;5031783;28;20080;-76
2022/05/15 03:14:16;;;;;;;15.13;7.45;;;;;;;;;;5021598;28;20055;-75
2022/05/15 03:16:43;;;;;;;17.35;8.10;;;;;;;;;;5047659;28;20103;-75
2022/05/15 03:19:10;;;;;;;13.45;7.53;;;;;;;;;;5049362;28;20441;-75
2022/05/15 03:21:37;;;;;;;24.48;7.68;;;;;;;;;;5049170;28;20149;-75
2022/05/15 03:24:07;;;;;;;16.23;7.45;;;;;;;;;;5040871;28;20053;-75
2022/05/15 03:26:35;;;;;;;16.80;6.97;;;;;;;;;;5031157;28;20159;-75
2022/05/15 03:29:04;;;;;;;17.40;6.28;;;;;;;;;;5030078;28;20052;-75
2022/05/15 03:31:32;;;;;;;13.50;7.10;;;;;;;;;;5045110;28;20136;-76
2022/05/15 03:33:59;;;;;;;22.20;6.82;;;;;;;;;;5024450;28;20060;-76
2022/05/15 03:36:26;;;;;;;17.70;6.13;;;;;;;;;;5028977;28;20161;-75
2022/05/15 03:38:54;;;;;;;12.90;6.03;;;;;;;;;;5046257;28;20051;-76
2022/05/15 03:41:21;;;;;;;17.52;6.97;;;;;;;;;;5045693;28;20168;-75
2022/05/15 03:43:48;;;;;;;19.65;6.95;;;;;;;;;;5027688;28;20136;-75
2022/05/15 03:46:15;;;;;;;17.65;6.80;;;;;;;;;;5043117;28;20135;-75
2022/05/15 03:48:42;;;;;;;12.93;6.53;;;;;;;;;;5042318;28;20064;-76
2022/05/15 03:51:09;;;;;;;23.05;6.80;;;;;;;;;;5047621;28;20136;-76
2022/05/15 03:53:37;;;;;;;22.48;8.77;;;;;;;;;;5041558;28;20128;-76
2022/05/15 03:56:05;;;;;;;18.08;8.13;;;;;;;;;;5044427;28;20822;-76
2022/05/15 03:58:34;;;;;;;24.90;12.13;;;;;;;;;;5040257;28;20045;-76
2022/05/15 04:01:02;;;;;;;25.33;11.07;;;;;;;;;;5040775;28;20073;-75
2022/05/15 04:03:29;;;;;;;21.73;9.18;;;;;;;;;;5025169;28;20893;-75
2022/05/15 04:05:56;;;;;;;13.15;7.78;;;;;;;;;;5043419;28;20048;-75
2022/05/15 04:08:23;;;;;;;12.60;6.07;;;;;;;;;;5038765;28;20148;-75
2022/05/15 04:10:51;;;;;;;13.77;5.80;;;;;;;;;;5038001;28;20112;-75
2022/05/15 04:13:18;;;;;;;10.70;5.95;;;;;;;;;;5043423;28;20143;-75
2022/05/15 04:15:45;;;;;;;14.60;5.65;;;;;;;;;;5040890;28;20051;-76
2022/05/15 04:18:13;;;;;;;13.60;5.50;;;;;;;;;;5030762;28;20136;-75
2022/05/15 04:20:42;;;;;;;12.20;6.15;;;;;;;;;;5028590;28;20080;-75
2022/05/15 04:23:09;;;;;;;16.10;6.20;;;;;;;;;;5045658;28;20155;-75
2022/05/15 04:25:36;;;;;;;13.65;6.00;;;;;;;;;;5029326;28;20147;-75
2022/05/15 04:28:03;;;;;;;17.00;6.15;;;;;;;;;;5048011;28;20453;-75
2022/05/15 04:30:31;;;;;;;13.65;5.07;;;;;;;;;;5029458;28;20132;-75
2022/05/15 04:32:58;;;;;;;15.50;5.82;;;;;;;;;;5028404;28;20106;-75
2022/05/15 04:35:25;;;;;;;18.33;6.25;;;;;;;;;;5050230;28;20051;-75
2022/05/15 04:37:52;;;;;;;14.50;5.80;;;;;;;;;;5047262;28;20132;-74
2022/05/15 04:40:21;;;;;;;13.75;6.43;;;;;;;;;;5051183;28;20135;-74
2022/05/15 04:42:48;;;;;;;14.90;6.18;;;;;;;;;;5039733;28;20136;-74
2022/05/15 04:45:15;;;;;;;13.65;5.80;;;;;;;;;;5028458;28;20130;-74
2022/05/15 04:47:46;;;;;;;26.05;6.78;;;;;;;;;;5030419;28;20052;-74
2022/05/15 04:50:14;;;;;;;15.88;6.65;;;;;;;;;;5047568;28;20052;-75
2022/05/15 04:52:42;;;;;;;10.85;5.53;;;;;;;;;;5027801;28;20056;-75
2022/05/15 04:55:10;;;;;;;17.23;6.40;;;;;;;;;;5053513;28;20815;-75
2022/05/15 04:57:37;;;;;;;16.75;5.65;;;;;;;;;;5025284;28;20069;-75
2022/05/15 05:00:06;;;;;;;17.50;6.80;;;;;;;;;;5044164;28;20083;-75
2022/05/15 05:02:33;;;;;;;19.30;6.35;;;;;;;;;;5043961;28;20132;-75
2022/05/15 05:05:00;;;;;;;18.40;5.90;;;;;;;;;;5047721;28;20182;-75
2022/05/15 05:07:28;;;;;;;16.83;6.03;;;;;;;;;;5046419;28;20562;-74
2022/05/15 05:09:55;;;;;;;23.77;6.25;;;;;;;;;;5037762;28;20076;-74
2022/05/15 05:12:23;;;;;;;23.40;5.50;;;;;;;;;;5030093;28;20404;-74
2022/05/15 05:14:50;;;;;;;17.42;5.93;;;;;;;;;;5048133;28;20160;-74
2022/05/15 05:17:17;;;;;;;16.95;5.30;;;;;;;;;;5050480;28;20152;-74
2022/05/15 05:19:44;;;;;;;16.02;5.28;;;;;;;;;;5027535;28;20537;-75
2022/05/15 05:22:12;;;;;;;8.93;5.13;;;;;;;;;;5027515;28;20061;-75
2022/05/15 05:24:39;;;;;;;18.77;5.80;;;;;;;;;;5028030;28;20053;-75
2022/05/15 05:27:06;;;;;;;15.43;5.43;;;;;;;;;;5045237;28;20136;-75
2022/05/15 05:29:34;;;;;;;28.40;5.90;;;;;;;;;;5027129;28;20111;-75
2022/05/15 05:32:01;;;;;;;21.92;5.55;;;;;;;;;;5043350;28;20597;-76
2022/05/15 05:34:29;;;;;;;18.80;6.75;;;;;;;;;;5044335;28;20144;-75
2022/05/15 05:36:56;;;;;;;17.70;5.80;;;;;;;;;;5032691;28;20156;-74
2022/05/15 05:39:24;;;;;;;21.30;5.85;;;;;;;;;;5044595;28;20157;-76
2022/05/15 05:41:51;;;;;;;16.58;5.50;;;;;;;;;;5044846;28;20139;-76
2022/05/15 05:44:18;;;;;;;12.80;4.53;;;;;;;;;;5050216;28;20080;-75
2022/05/15 05:46:45;;;;;;;15.85;4.82;;;;;;;;;;5045154;28;20053;-76
2022/05/15 05:49:13;;;;;;;14.20;5.13;;;;;;;;;;5043809;28;20137;-76
2022/05/15 05:51:40;;;;;;;11.07;4.80;;;;;;;;;;5049862;28;20761;-76
2022/05/15 05:54:07;;;;;;;21.10;6.13;;;;;;;;;;5034957;28;20129;-76
2022/05/15 05:56:34;;;;;;;17.67;5.22;;;;;;;;;;5049435;28;20779;-76
2022/05/15 05:59:01;;;;;;;15.70;5.15;;;;;;;;;;5051862;28;20445;-76
2022/05/15 06:01:29;;;;;;;15.48;4.53;;;;;;;;;;5044050;28;20049;-76
2022/05/15 06:06:43;;;;;;;14.52;4.78;;;;;;;;;;5044970;28;20716;-76
2022/05/15 06:09:10;;;;;;;16.27;4.88;;;;;;;;;;5044554;28;20084;-77
2022/05/15 06:11:37;;;;;;;14.50;4.15;;;;;;;;;;5044894;28;20135;-77
2022/05/15 06:14:04;;;;;;;12.93;4.05;;;;;;;;;;5049128;28;20148;-76
2022/05/15 06:16:32;;;;;;;10.45;3.28;;;;;;;;;;5041667;28;20168;-76
2022/05/15 06:19:00;;;;;;;11.40;4.47;;;;;;;;;;5046991;28;20148;-75
2022/05/15 06:21:27;;;;;;;11.93;3.88;;;;;;;;;;5039382;28;20509;-76
2022/05/15 06:23:54;;;;;;;10.20;3.40;;;;;;;;;;5009546;28;20053;-76
2022/05/15 06:26:21;;;;;;;9.85;2.67;;;;;;;;;;5035259;28;20764;-77
2022/05/15 06:28:48;;;;;;;8.52;2.90;;;;;;;;;;5040346;28;20076;-77
2022/05/15 06:31:15;;;;;;;7.15;2.65;;;;;;;;;;5038909;28;20191;-77
2022/05/15 06:33:43;;;;;;;10.50;2.88;;;;;;;;;;5025649;28;20049;-77
2022/05/15 06:36:10;;;;;;;11.82;3.00;;;;;;;;;;5025248;28;20106;-77
2022/05/15 06:38:40;;;;;;;7.93;2.38;;;;;;;;;;5036446;28;20060;-76
2022/05/15 06:41:08;;;;;;;9.93;2.63;;;;;;;;;;5019139;28;20081;-76
2022/05/15 06:43:35;;;;;;;7.93;2.58;;;;;;;;;;5033737;28;20151;-75
2022/05/15 06:46:03;;;;;;;7.32;1.95;;;;;;;;;;5037922;28;20176;-77
2022/05/15 06:48:30;;;;;;;8.15;2.80;;;;;;;;;;5011352;28;20175;-77
2022/05/15 06:50:59;;;;;;;2.92;1.45;;;;;;;;;;5030962;28;20059;-76
2022/05/15 06:53:26;;;;;;;10.63;2.15;;;;;;;;;;5037555;28;20139;-75
2022/05/15 06:58:39;;;;;;;4.80;1.40;;;;;;;;;;5028907;28;21730;-75
2022/05/15 07:01:07;;;;;;;4.75;1.33;;;;;;;;;;5021254;28;20760;-75
2022/05/15 07:03:34;;;;;;;8.00;1.90;;;;;;;;;;5000701;28;20057;-75
2022/05/15 07:06:02;;;;;;;3.58;1.23;;;;;;;;;;4992015;28;20167;-75
2022/05/15 07:08:29;;;;;;;6.57;1.88;;;;;;;;;;5014516;28;20168;-76
2022/05/15 07:10:56;;;;;;;6.78;1.98;;;;;;;;;;5015608;28;20047;-78
2022/05/15 07:13:25;;;;;;;6.95;1.70;;;;;;;;;;5023429;28;20072;-80
2022/05/15 07:15:52;;;;;;;6.15;1.63;;;;;;;;;;5039402;28;20140;-76
2022/05/15 07:18:23;;;;;;;31.70;4.25;;;;;;;;;;5023238;28;20184;-75
2022/05/15 07:20:51;;;;;;;9.27;2.10;;;;;;;;;;5026383;28;20136;-76
2022/05/15 07:23:19;;;;;;;7.20;2.15;;;;;;;;;;5043276;28;20152;-75
2022/05/15 07:25:46;;;;;;;5.97;1.80;;;;;;;;;;5041124;28;20064;-76
2022/05/15 07:28:14;;;;;;;6.75;1.73;;;;;;;;;;5023197;28;20057;-75
2022/05/15 07:30:41;;;;;;;6.38;1.75;;;;;;;;;;5040186;28;20123;-76
2022/05/15 07:33:08;;;;;;;5.63;1.90;;;;;;;;;;5041196;28;20622;-76
2022/05/15 07:35:35;;;;;;;3.28;1.38;;;;;;;;;;5038647;28;20040;-74
2022/05/15 07:38:03;;;;;;;5.20;1.90;;;;;;;;;;5041835;28;20041;-75
2022/05/15 07:40:30;;;;;;;7.53;2.13;;;;;;;;;;5045032;28;20139;-76
2022/05/15 07:42:57;;;;;;;5.65;1.83;;;;;;;;;;5024425;28;20143;-76
2022/05/15 07:45:24;;;;;;;5.20;1.85;;;;;;;;;;5024940;28;20129;-75
2022/05/15 07:47:51;;;;;;;4.85;1.60;;;;;;;;;;5031214;28;20118;-77
2022/05/15 07:50:19;;;;;;;4.93;1.50;;;;;;;;;;5039017;28;20052;-76
2022/05/15 07:52:47;;;;;;;7.00;2.10;;;;;;;;;;5044630;28;20053;-83
2022/05/15 07:55:15;;;;;;;5.05;1.67;;;;;;;;;;5044613;28;20124;-78
2022/05/15 07:57:42;;;;;;;5.28;1.75;;;;;;;;;;5044821;28;20550;-80
2022/05/15 08:00:11;;;;;;;5.47;1.70;;;;;;;;;;5051175;28;20136;-82
2022/05/15 08:02:40;;;;;;;5.90;1.30;;;;;;;;;;5037215;28;20045;-81
2022/05/15 08:08:01;;;;;;;5.93;1.70;;;;;;;;;;5042837;28;20854;-77
2022/05/15 08:10:33;;;;;;;7.70;1.80;;;;;;;;;;5038117;28;20183;-79
2022/05/15 08:13:00;;;;;;;4.47;1.50;;;;;;;;;;5012868;28;20045;-78
2022/05/15 08:15:31;;;;;;;4.70;1.38;;;;;;;;;;5036166;28;20111;-78
2022/05/15 08:23:33;;;;;;;6.35;1.90;;;;;;;;;;5041312;28;20053;-78
2022/05/15 08:23:37;;;;;;;6.00;1.17;;;;;;;;;;5048014;28;20143;-78
2022/05/15 08:26:06;;;;;;;4.80;1.40;;;;;;;;;;5029774;28;20503;-78
2022/05/15 08:28:34;;;;;;;4.90;1.27;;;;;;;;;;5051396;28;20099;-78
2022/05/15 08:31:01;;;;;;;4.20;1.25;;;;;;;;;;5029028;28;20134;-78
2022/05/15 08:33:30;;;;;;;46.72;2.53;;;;;;;;;;5045951;28;20048;-77
2022/05/15 08:35:58;;;;;;;3.58;1.60;;;;;;;;;;5045886;28;20089;-77
2022/05/15 08:38:25;;;;;;;4.88;1.58;;;;;;;;;;5045627;28;20068;-78
2022/05/15 08:41:11;;;;;;;5.55;1.55;;;;;;;;;;5044416;28;20063;-77
2022/05/15 08:43:41;;;;;;;64.35;4.90;;;;;;;;;;5044729;28;20135;-77
2022/05/15 08:46:27;;;;;;;4.32;1.38;;;;;;;;;;5029966;28;20607;-77
2022/05/15 08:49:16;;;;;;;10.65;1.65;;;;;;;;;;5044439;28;20053;-76
2022/05/15 08:52:05;;;;;;;3.97;1.40;;;;;;;;;;5044700;28;20045;-76
2022/05/15 08:54:36;;;;;;;5.28;1.50;;;;;;;;;;5043650;28;20123;-76
2022/05/15 08:57:03;;;;;;;70.88;12.20;;;;;;;;;;5047706;28;20131;-77
2022/05/15 08:59:32;;;;;;;7.60;1.67;;;;;;;;;;5031723;28;20144;-77
2022/05/15 09:02:00;;;;;;;5.30;1.45;;;;;;;;;;5047706;28;20049;-79
2022/05/15 09:04:32;;;;;;;24.35;4.30;;;;;;;;;;5028972;28;20059;-78
2022/05/15 09:07:33;;;;;;;29.10;3.45;;;;;;;;;;5061523;28;20771;-80
2022/05/15 09:10:16;;;;;;;4.47;1.45;;;;;;;;;;5002513;28;20148;-80
2022/05/15 09:12:57;;;;;;;3.33;1.50;;;;;;;;;;5033097;28;20123;-78
2022/05/15 09:15:29;;;;;;;5.00;1.13;;;;;;;;;;5020210;28;20132;-79
2022/05/15 09:18:03;;;;;;;3.83;1.30;;;;;;;;;;5051208;28;20586;-78
2022/05/15 09:20:42;;;;;;;4.07;1.67;;;;;;;;;;5047589;28;20045;-78
2022/05/15 09:23:21;;;;;;;5.65;1.42;;;;;;;;;;5023238;28;20052;-80
2022/05/15 09:25:58;;;;;;;6.88;1.40;;;;;;;;;;5039706;28;20136;-79
2022/05/15 09:28:27;;;;;;;6.97;1.58;;;;;;;;;;5029305;28;20055;-80
2022/05/15 09:30:56;;;;;;;4.15;1.33;;;;;;;;;;5047294;28;20786;-79
2022/05/15 09:33:25;;;;;;;6.75;1.35;;;;;;;;;;5020907;28;20045;-80
2022/05/15 09:36:12;;;;;;;5.85;1.48;;;;;;;;;;5019622;28;20760;-79
2022/05/15 09:38:39;;;;;;;4.80;2.30;;;;;;;;;;5042896;28;20558;-79
2022/05/15 09:43:58;;;;;;;4.15;1.55;;;;;;;;;;5039190;28;20143;-79
2022/05/15 09:46:26;;;;;;;5.57;1.42;;;;;;;;;;5043380;28;20069;-79
2022/05/15 09:49:01;;;;;;;26.58;3.35;;;;;;;;;;5053099;28;20052;-79
2022/05/15 09:51:48;;;;;;;42.20;5.57;;;;;;;;;;5024113;28;20139;-80
2022/05/15 09:54:41;;;;;;;3.85;1.50;;;;;;;;;;5043914;28;20135;-82
2022/05/15 09:57:14;;;;;;;6.68;1.88;;;;;;;;;;5047072;28;20060;-80
2022/05/15 09:59:42;;;;;;;4.35;1.23;;;;;;;;;;5028130;28;20596;-80
2022/05/15 10:02:22;;;;;;;2.85;1.30;;;;;;;;;;5045621;28;20079;-80
2022/05/15 10:04:50;;;;;;;3.17;1.45;;;;;;;;;;5040741;28;23156;-80
2022/05/15 10:07:33;;;;;;;5.70;1.40;;;;;;;;;;5035971;28;20055;-80
2022/05/15 10:10:13;;;;;;;4.05;1.52;;;;;;;;;;5011483;28;20131;-80
2022/05/15 10:12:42;;;;;;;4.18;1.40;;;;;;;;;;5030391;28;20138;-80
2022/05/15 10:15:09;;;;;;;3.67;1.27;;;;;;;;;;5027238;28;20049;-80
2022/05/15 10:17:40;;;;;;;3.17;1.30;;;;;;;;;;5013589;28;20049;-80
2022/05/15 10:20:34;;;;;;;3.95;1.42;;;;;;;;;;5020498;28;20073;-80
2022/05/15 10:23:06;;;;;;;3.23;1.50;;;;;;;;;;5007400;28;20136;-81
2022/05/15 10:25:36;;;;;;;3.88;1.17;;;;;;;;;;5012883;28;20171;-81
2022/05/15 10:28:12;;;;;;;2.58;1.10;;;;;;;;;;5005594;28;20076;-81
2022/05/15 10:30:43;;;;;;;5.45;1.30;;;;;;;;;;5018045;28;20050;-83
2022/05/15 10:33:16;;;;;;;4.55;1.50;;;;;;;;;;5002317;28;20132;-82
2022/05/15 10:35:43;;;;;;;5.75;1.50;;;;;;;;;;5031836;28;20049;-81
2022/05/15 10:38:29;;;;;;;3.58;1.20;;;;;;;;;;5042710;28;20075;-80
2022/05/15 10:41:09;;;;;;;3.33;1.38;;;;;;;;;;5036972;28;20165;-82
2022/05/15 10:43:54;;;;;;;3.58;1.25;;;;;;;;;;5038232;28;20750;-80
2022/05/15 10:46:30;;;;;;;2.38;1.30;;;;;;;;;;5030418;28;20135;-80
2022/05/15 10:48:58;;;;;;;9.68;1.45;;;;;;;;;;5044060;28;20049;-80
2022/05/15 10:51:30;;;;;;;4.65;1.33;;;;;;;;;;5027304;28;20041;-81
2022/05/15 10:57:21;;;;;;;6.75;1.27;;;;;;;;;;5047770;28;20098;-80
2022/05/15 10:59:52;;;;;;;2.58;1.13;;;;;;;;;;5031272;28;20053;-80
2022/05/15 11:02:35;;;;;;;3.72;1.30;;;;;;;;;;5030511;28;20083;-81
2022/05/15 11:05:30;;;;;;;7.63;1.50;;;;;;;;;;5025675;28;20049;-81
2022/05/15 11:08:12;;;;;;;7.32;1.92;;;;;;;;;;5045011;28;20140;-80
2022/05/15 11:10:44;;;;;;;3.90;1.50;;;;;;;;;;5029814;28;20155;-79
2022/05/15 11:13:24;;;;;;;3.53;1.35;;;;;;;;;;5031093;28;20072;-81
2022/05/15 11:16:11;;;;;;;5.72;1.30;;;;;;;;;;5031249;28;20091;-81
2022/05/15 11:18:47;;;;;;;4.22;1.48;;;;;;;;;;5048845;28;20463;-81
2022/05/15 11:21:18;;;;;;;3.20;1.30;;;;;;;;;;5047788;28;20145;-82
2022/05/15 11:24:08;;;;;;;2.97;1.60;;;;;;;;;;5048684;28;20701;-82
2022/05/15 11:26:42;;;;;;;3.90;1.30;;;;;;;;;;5035935;28;20085;-81
2022/05/15 11:29:12;;;;;;;6.18;1.25;;;;;;;;;;5028770;28;20132;-81
2022/05/15 11:31:53;;;;;;;3.22;1.17;;;;;;;;;;5027857;28;20649;-81
2022/05/15 11:34:21;;;;;;;2.63;1.40;;;;;;;;;;5023969;28;20877;-81
2022/05/15 11:36:49;;;;;;;2.88;1.02;;;;;;;;;;5042491;28;20072;-80
2022/05/15 11:39:17;;;;;;;4.13;1.50;;;;;;;;;;5044855;28;20085;-80
2022/05/15 11:41:44;;;;;;;1.80;1.20;;;;;;;;;;5026002;28;20371;-81
2022/05/15 11:44:18;;;;;;;3.00;1.40;;;;;;;;;;5027378;28;20501;-79
2022/05/15 11:46:45;;;;;;;2.75;1.20;;;;;;;;;;5044103;28;20080;-80
2022/05/15 11:49:33;;;;;;;4.28;1.42;;;;;;;;;;5043232;28;20053;-82
2022/05/15 11:52:06;;;;;;;4.13;1.13;;;;;;;;;;5045602;28;20128;-79
2022/05/15 11:57:47;;;;;;;2.38;1.08;;;;;;;;;;5057977;28;20052;-80
2022/05/15 12:00:22;;;;;;;3.55;1.20;;;;;;;;;;5031285;28;20044;-81
2022/05/15 12:06:23;;;;;;;4.13;1.38;;;;;;;;;;4961677;28;20104;-79
2022/05/15 12:08:52;;;;;;;2.40;1.02;;;;;;;;;;4953725;28;20153;-80
2022/05/15 12:11:19;;;;;;;4.60;1.10;;;;;;;;;;4963184;28;20954;-80
2022/05/15 12:13:47;;;;;;;3.95;1.17;;;;;;;;;;4962748;28;20134;-80
2022/05/15 12:16:15;;;;;;;3.53;1.27;;;;;;;;;;4961604;28;20143;-80
2022/05/15 12:18:43;;;;;;;4.53;1.70;;;;;;;;;;4963683;28;20083;-80
2022/05/15 12:21:14;;;;;;;5.00;1.40;;;;;;;;;;4962977;28;20657;-79
2022/05/15 12:24:27;;;;;;;5.90;1.27;;;;;;;;;;4963201;28;20074;-80
2022/05/15 12:26:40;;;;;;;3.13;1.38;;;;;;;;;;4966348;28;20087;-79
2022/05/15 12:29:18;;;;;;;7.18;1.52;;;;;;;;;;4964838;28;20138;-79
2022/05/15 12:31:46;;;;;;;3.83;1.63;;;;;;;;;;4964924;28;20183;-79
2022/05/15 12:34:24;;;;;;;4.78;1.40;;;;;;;;;;4964370;28;20082;-79
2022/05/15 12:36:56;;;;;;;5.90;1.33;;;;;;;;;;4977443;28;20503;-79
2022/05/15 12:39:27;;;;;;;4.90;1.30;;;;;;;;;;4964840;28;20086;-79
2022/05/15 12:41:59;;;;;;;8.73;1.50;;;;;;;;;;4969310;28;20058;-79
2022/05/15 12:44:31;;;;;;;3.80;1.52;;;;;;;;;;4971201;28;20232;-79
2022/05/15 12:47:00;;;;;;;6.05;1.60;;;;;;;;;;4968867;28;20050;-79
2022/05/15 12:49:31;;;;;;;3.58;1.30;;;;;;;;;;4968734;28;20074;-79
2022/05/15 12:52:12;;;;;;;3.30;1.30;;;;;;;;;;4969287;28;20059;-79
2022/05/15 12:54:40;;;;;;;4.15;1.42;;;;;;;;;;4982796;28;20090;-78
2022/05/15 12:57:10;;;;;;;4.88;1.30;;;;;;;;;;4967204;28;20054;-79
2022/05/15 12:59:39;;;;;;;9.27;1.38;;;;;;;;;;4969995;28;20196;-79
2022/05/15 13:02:18;;;;;;;2.38;1.15;;;;;;;;;;4972172;28;20081;-79
2022/05/15 13:04:50;;;;;;;2.85;1.08;;;;;;;;;;4969796;28;20065;-79
2022/05/15 13:07:22;;;;;;;3.60;1.20;;;;;;;;;;4968748;28;20090;-84
2022/05/15 13:09:56;;;;;;;4.80;1.20;;;;;;;;;;4968036;28;20130;-78
2022/05/15 13:12:24;;;;;;;4.00;1.35;;;;;;;;;;4969504;28;20078;-78
2022/05/15 13:14:53;;;;;;;4.07;1.17;;;;;;;;;;4969368;28;20874;-78
2022/05/15 13:17:27;;;;;;;2.58;1.17;;;;;;;;;;4976072;28;20058;-78
2022/05/15 13:19:55;;;;;;;8.85;1.90;;;;;;;;;;4962778;28;20082;-79
2022/05/15 13:22:24;;;;;;;6.93;1.08;;;;;;;;;;4950911;28;20712;-78
2022/05/15 13:25:00;;;;;;;5.50;1.40;;;;;;;;;;4953444;28;20079;-78
2022/05/15 13:27:28;;;;;;;4.20;1.52;;;;;;;;;;4970059;28;20086;-78
2022/05/15 13:29:58;;;;;;;5.07;1.20;;;;;;;;;;4972102;28;20090;-78
2022/05/15 13:32:25;;;;;;;5.68;1.35;;;;;;;;;;4970047;28;20364;-78
2022/05/15 13:34:52;;;;;;;6.68;1.60;;;;;;;;;;4956949;28;20105;-78
2022/05/15 13:37:31;;;;;;;4.28;1.42;;;;;;;;;;4969206;28;20627;-77
2022/05/15 13:43:18;;;;;;;8.50;1.60;;;;;;;;;;4968890;28;20049;-77
2022/05/15 13:45:52;;;;;;;4.63;1.07;;;;;;;;;;4967859;28;20074;-77
2022/05/15 13:48:20;;;;;;;3.67;1.10;;;;;;;;;;4972000;28;20047;-79
2022/05/15 13:50:52;;;;;;;3.92;1.50;;;;;;;;;;4970886;28;20122;-80
2022/05/15 13:53:45;;;;;;;4.05;1.27;;;;;;;;;;4971614;28;20557;-80
2022/05/15 13:56:16;;;;;;;13.57;1.63;;;;;;;;;;4971309;28;20134;-79
2022/05/15 13:58:54;;;;;;;10.80;1.58;;;;;;;;;;4972217;28;20055;-79
2022/05/15 14:01:26;;;;;;;10.45;2.10;;;;;;;;;;4959551;28;20058;-81
2022/05/15 14:04:25;;;;;;;10.02;1.98;;;;;;;;;;4970574;28;20053;-79
2022/05/15 14:06:52;;;;;;;7.38;1.30;;;;;;;;;;4967058;28;20442;-79
2022/05/15 14:09:19;;;;;;;3.67;1.10;;;;;;;;;;4968020;28;20836;-77
2022/05/15 14:12:00;;;;;;;7.57;1.67;;;;;;;;;;4970047;28;20152;-78
2022/05/15 14:14:46;;;;;;;3.65;1.40;;;;;;;;;;4968962;28;20097;-77
2022/05/15 14:17:15;;;;;;;12.07;2.17;;;;;;;;;;4970114;28;20043;-79
2022/05/15 14:19:51;;;;;;;4.28;1.17;;;;;;;;;;4987387;28;20089;-78
2022/05/15 14:22:19;;;;;;;2.28;1.02;;;;;;;;;;4970969;28;20078;-78
2022/05/15 14:24:46;;;;;;;4.15;1.23;;;;;;;;;;4971048;28;20089;-78
2022/05/15 14:27:13;;;;;;;4.45;1.30;;;;;;;;;;4970974;28;20050;-78
2022/05/15 14:29:41;;;;;;;3.45;1.20;;;;;;;;;;4971645;28;20506;-78
2022/05/15 14:32:10;;;;;;;3.17;1.20;;;;;;;;;;4970966;28;20086;-78
2022/05/15 14:34:37;;;;;;;3.60;1.05;;;;;;;;;;4970431;28;20105;-78
2022/05/15 14:37:05;;;;;;;3.17;1.10;;;;;;;;;;4971327;28;20102;-78
2022/05/15 14:39:32;;;;;;;6.63;1.75;;;;;;;;;;4972102;28;20646;-78
2022/05/15 14:41:59;;;;;;;7.45;1.38;;;;;;;;;;4971346;28;20165;-78
2022/05/15 14:44:27;;;;;;;3.60;1.13;;;;;;;;;;4967752;28;20166;-78
2022/05/15 14:46:55;;;;;;;3.40;1.25;;;;;;;;;;4966646;28;20542;-78
2022/05/15 14:49:23;;;;;;;6.68;1.45;;;;;;;;;;4972038;28;20545;-79
2022/05/15 14:51:58;;;;;;;4.60;1.17;;;;;;;;;;4955658;28;20065;-77
2022/05/15 14:54:25;;;;;;;4.72;1.10;;;;;;;;;;4969866;28;20101;-76
2022/05/15 14:56:53;;;;;;;6.38;2.15;;;;;;;;;;4970919;28;20086;-77
2022/05/15 14:59:22;;;;;;;10.02;1.30;;;;;;;;;;4970918;28;20446;-76
2022/05/15 15:01:50;;;;;;;5.40;1.33;;;;;;;;;;4984812;28;20137;-77
2022/05/15 15:04:18;;;;;;;5.57;1.30;;;;;;;;;;4969307;28;20050;-77
2022/05/15 15:06:45;;;;;;;4.15;0.95;;;;;;;;;;4968823;28;20650;-77
2022/05/15 15:09:13;;;;;;;3.35;1.00;;;;;;;;;;4970258;28;20455;-77
2022/05/15 15:11:50;;;;;;;5.55;1.70;;;;;;;;;;4964247;28;20082;-76
2022/05/15 15:14:19;;;;;;;6.82;1.25;;;;;;;;;;4970472;28;20097;-76
2022/05/15 15:16:47;;;;;;;29.67;2.55;;;;;;;;;;4969582;28;20093;-76
2022/05/15 15:19:15;;;;;;;3.13;1.30;;;;;;;;;;4967780;28;20419;-76
2022/05/15 15:21:44;;;;;;;4.68;1.08;;;;;;;;;;4971705;28;20507;-78
2022/05/15 15:24:11;;;;;;;3.38;1.10;;;;;;;;;;4966673;28;20098;-77
2022/05/15 15:26:41;;;;;;;3.97;1.20;;;;;;;;;;4966158;28;20138;-77